Time;durP1;ratioP1;P1;durP2;ratioP2;P2;SDS_P1;SDS_P2;PMS_P1;PMS_P2;Temp;Humidity;BMP_temperature;BMP_pressure;BME280_temperature;BME280_humidity;BME280_pressure;Samples;Min_cycle;Max_cycle;Signal;HPM_P1;HPM_P2
2020/12/04 10:26:17;;;;;;;;;10.67;10.00;;;;;11.13;68.72;99747.19;5114543;27;13495;-73
2020/12/04 10:28:43;;;;;;;;;18.33;14.67;;;;;-140.36;100.00;59164.16;5096299;28;8848;-73
2020/12/04 10:31:10;;;;;;;;;14.67;11.33;;;;;-140.36;100.00;59164.16;5094203;28;8911;-75
2020/12/04 10:33:36;;;;;;;;;16.33;11.33;;;;;-140.36;100.00;59164.16;5098356;28;8868;-73
2020/12/04 10:36:03;;;;;;;;;11.00;10.00;;;;;-140.36;100.00;59164.16;5095547;28;8827;-79
2020/12/04 10:38:30;;;;;;;;;11.00;10.00;;;;;11.13;68.72;99747.19;5095521;28;8855;-79
2020/12/04 10:40:56;;;;;;;;;13.33;11.00;;;;;11.74;67.48;99717.31;5099073;28;9665;-77
2020/12/04 10:43:23;;;;;;;;;10.00;10.00;;;;;11.51;68.13;99706.03;5096052;28;8815;-81
2020/12/04 10:45:50;;;;;;;;;8.00;7.67;;;;;11.70;67.73;99705.09;5097956;28;9644;-72
2020/12/04 10:48:17;;;;;;;;;15.00;11.67;;;;;12.05;66.44;99692.63;5096201;28;8859;-73
2020/12/04 10:50:44;;;;;;;;;11.67;10.67;;;;;12.21;66.71;99694.28;5096257;28;8911;-75
2020/12/04 10:53:13;;;;;;;;;11.00;11.00;;;;;12.42;65.46;99678.38;5097154;28;12325;-76
2020/12/04 10:55:42;;;;;;;;;13.00;10.33;;;;;12.35;65.30;99671.44;5095702;28;11558;-78
2020/12/04 10:58:08;;;;;;;;;13.33;11.33;;;;;12.35;65.80;99687.19;5094037;28;11540;-77
2020/12/04 11:00:36;;;;;;;;;10.00;9.00;;;;;12.32;66.02;99674.06;5096833;28;11525;-76
2020/12/04 11:03:08;;;;;;;;;11.67;11.67;;;;;12.21;66.63;99673.28;5092886;28;11593;-76
2020/12/04 11:05:39;;;;;;;;;11.67;11.67;;;;;11.88;67.24;99679.66;5097837;28;11579;-75
2020/12/04 11:08:05;;;;;;;;;11.67;11.00;;;;;12.11;66.74;99668.97;5093144;28;11557;-75
2020/12/04 11:10:31;;;;;;;;;12.00;12.00;;;;;12.24;66.27;99673.28;5096751;28;11595;-76
2020/12/04 11:12:58;;;;;;;;;11.33;11.33;;;;;12.40;65.82;99659.13;5097610;28;8824;-77
2020/12/04 11:15:24;;;;;;;;;11.00;10.00;;;;;12.46;65.56;99653.84;5088519;28;11551;-76
2020/12/04 11:20:27;;;;;;;;;9.33;9.33;;;;;12.69;64.89;99628.22;5174740;22;11641;-75
2020/12/04 11:22:53;;;;;;;;;10.00;10.00;;;;;12.63;65.46;99620.41;5039194;28;11480;-75
2020/12/04 11:25:20;;;;;;;;;10.67;9.33;;;;;12.77;65.73;99623.75;5034398;28;11567;-75
2020/12/04 11:27:48;;;;;;;;;14.33;12.00;;;;;12.45;65.88;99629.31;5036026;28;11571;-76
2020/12/04 11:30:17;;;;;;;;;12.67;11.00;;;;;13.20;63.50;99604.00;5041265;28;11701;-87
2020/12/04 11:32:44;;;;;;;;;9.50;8.00;;;;;12.73;65.56;99616.81;5047942;28;11597;-80
2020/12/04 11:35:12;;;;;;;;;11.50;8.75;;;;;12.88;65.63;99611.34;4992820;28;11558;-79
2020/12/04 11:37:40;;;;;;;;;8.75;8.75;;;;;12.53;66.33;99614.38;4968230;28;12690;-80
2020/12/04 11:40:08;;;;;;;;;11.00;8.00;;;;;12.76;66.08;99601.00;4972225;28;12334;-77
2020/12/04 11:45:18;;;;;;;;;11.33;10.33;;;;;12.89;65.39;99602.63;4970634;28;11561;-75
2020/12/04 11:47:45;;;;;;;;;16.00;13.00;;;;;12.94;65.71;99600.81;4972709;28;11566;-76
2020/12/04 11:50:14;;;;;;;;;13.50;11.25;;;;;13.08;65.24;99596.25;4973438;28;11606;-75
2020/12/04 11:52:42;;;;;;;;;10.00;10.00;;;;;13.36;63.89;99573.97;4974497;28;11674;-74
2020/12/04 11:55:09;;;;;;;;;10.00;8.75;;;;;13.46;63.64;99580.84;4975729;28;11556;-75
2020/12/04 11:57:36;;;;;;;;;17.75;9.00;;;;;13.47;63.74;99582.59;4983059;28;11635;-75
2020/12/04 12:00:05;;;;;;;;;15.00;10.75;;;;;13.63;63.19;99573.59;4980363;28;11605;-77
2020/12/04 12:02:31;;;;;;;;;9.00;8.75;;;;;13.67;63.15;99575.28;4992808;28;11517;-74
2020/12/04 12:04:57;;;;;;;;;9.75;9.00;;;;;13.57;63.04;99564.03;4988052;28;11535;-75
2020/12/04 12:07:23;;;;;;;;;8.00;6.00;;;;;13.08;64.68;99567.34;4987571;28;11646;-75
2020/12/04 12:09:51;;;;;;;;;12.00;10.75;;;;;13.41;64.21;99566.91;4992121;28;11538;-73
2020/12/04 12:12:18;;;;;;;;;10.25;8.75;;;;;13.11;65.00;99562.06;4992593;28;11595;-73
2020/12/04 12:14:45;;;;;;;;;9.25;8.00;;;;;12.88;65.11;99569.31;4990779;28;11660;-74
2020/12/04 12:17:11;;;;;;;;;9.50;8.00;;;;;12.82;66.19;99572.03;4990847;28;11554;-80
2020/12/04 12:19:39;;;;;;;;;11.50;11.00;;;;;12.84;65.93;99563.22;4990404;28;11633;-83
2020/12/04 12:22:07;;;;;;;;;8.25;8.00;;;;;13.01;65.51;99556.03;4991697;28;11644;-75
2020/12/04 12:24:33;;;;;;;;;9.00;8.00;;;;;13.03;65.16;99558.66;4984500;28;11589;-78
2020/12/04 12:27:00;;;;;;;;;10.50;7.00;;;;;13.03;65.15;99548.16;4991892;28;11530;-73
2020/12/04 12:29:27;;;;;;;;;11.00;10.50;;;;;13.01;65.59;99556.03;4989556;28;11721;-72
2020/12/04 12:31:53;;;;;;;;;11.00;8.00;;;;;12.88;65.42;99550.94;4988870;28;11599;-73
2020/12/04 12:34:19;;;;;;;;;11.50;8.25;;;;;12.83;66.05;99558.03;4991766;28;11635;-74
2020/12/04 12:36:45;;;;;;;;;11.25;7.00;;;;;12.89;66.05;99557.94;4991845;28;11644;-73
2020/12/04 12:39:11;;;;;;;;;12.25;9.50;;;;;13.02;65.82;99552.56;4991705;28;11570;-83
2020/12/04 12:41:38;;;;;;;;;7.00;7.00;;;;;12.95;66.11;99555.25;4990405;28;11654;-81
2020/12/04 12:44:05;;;;;;;;;8.75;6.00;;;;;12.92;66.21;99560.53;4986085;28;11529;-75
2020/12/04 12:46:31;;;;;;;;;6.75;6.75;;;;;13.05;66.17;99551.66;4989899;28;11582;-74
2020/12/04 12:48:57;;;;;;;;;4.00;4.00;;;;;12.90;65.38;99552.66;4987232;28;12390;-81
2020/12/04 12:51:23;;;;;;;;;7.50;7.25;;;;;13.05;65.21;99556.91;4990561;28;12323;-75
2020/12/04 12:53:50;;;;;;;;;7.25;7.00;;;;;12.77;66.11;99556.31;4990006;28;11547;-75
2020/12/04 12:56:16;;;;;;;;;9.50;7.50;;;;;13.07;65.50;99555.13;4990443;28;11586;-73
2020/12/04 12:58:42;;;;;;;;;10.00;9.50;;;;;12.92;65.52;99550.00;4990094;28;11518;-74
2020/12/04 13:01:09;;;;;;;;;8.00;8.00;;;;;13.31;64.64;99533.75;4989381;28;11568;-72
2020/12/04 13:03:35;;;;;;;;;8.75;8.50;;;;;13.17;64.57;99504.16;4987071;28;11534;-72
2020/12/04 13:06:02;;;;;;;;;11.00;7.50;;;;;13.50;64.34;99524.72;4987719;28;12262;-72
2020/12/04 13:08:28;;;;;;;;;7.50;6.00;;;;;13.31;65.08;99517.97;4989553;28;11535;-73
2020/12/04 13:10:54;;;;;;;;;11.25;9.50;;;;;13.22;65.14;99518.97;4989749;28;11624;-73
2020/12/04 13:13:20;;;;;;;;;7.75;6.25;;;;;13.28;65.41;99524.13;4989071;28;11646;-74
2020/12/04 13:15:49;;;;;;;;;6.50;6.50;;;;;13.35;65.85;99514.41;4990393;28;11524;-73
2020/12/04 13:18:17;;;;;;;;;10.25;6.50;;;;;13.54;65.34;99521.16;4982131;28;11550;-73
2020/12/04 13:20:44;;;;;;;;;7.75;7.75;;;;;13.60;64.86;99510.53;4987466;28;12301;-71
2020/12/04 13:23:15;;;;;;;;;7.50;7.25;;;;;13.45;64.70;99505.50;4988541;28;11620;-70
2020/12/04 13:25:42;;;;;;;;;7.25;6.00;;;;;13.70;64.30;99504.22;4990043;28;11534;-72
2020/12/04 13:28:08;;;;;;;;;4.00;4.00;;;;;13.69;64.37;99499.88;4988977;28;11525;-72
2020/12/04 13:30:34;;;;;;;;;7.75;7.00;;;;;13.53;64.63;99498.38;4985538;28;11722;-72
2020/12/04 13:33:01;;;;;;;;;3.50;3.50;;;;;13.45;64.67;99495.84;4984660;28;11543;-74
2020/12/04 13:35:29;;;;;;;;;7.00;7.00;;;;;13.70;64.47;99483.19;4989819;28;11556;-70
2020/12/04 13:37:55;;;;;;;;;6.00;6.00;;;;;13.77;64.02;99471.66;4988863;28;11526;-73
2020/12/04 13:40:22;;;;;;;;;7.25;6.75;;;;;13.63;64.33;99489.41;4963802;28;11507;-73
2020/12/04 13:42:48;;;;;;;;;6.00;6.00;;;;;13.60;64.73;99478.97;4989130;28;11773;-72
2020/12/04 13:45:14;;;;;;;;;8.25;7.50;;;;;13.64;64.56;99478.03;4988672;28;11536;-73
2020/12/04 13:47:41;;;;;;;;;7.00;6.00;;;;;13.87;63.91;99473.25;4987916;28;11540;-73
2020/12/04 13:50:07;;;;;;;;;5.75;4.50;;;;;13.80;64.31;99476.88;4988715;28;11521;-72
2020/12/04 13:52:34;;;;;;;;;6.00;6.00;;;;;13.78;64.31;99473.38;4989773;28;11546;-72
2020/12/04 13:55:00;;;;;;;;;6.00;6.00;;;;;13.61;64.51;99485.94;4988211;28;11555;-72
2020/12/04 13:57:27;;;;;;;;;6.50;6.25;;;;;13.59;64.90;99479.88;4989175;28;11691;-71
2020/12/04 13:59:53;;;;;;;;;6.50;3.00;;;;;13.57;64.56;99479.00;4988238;28;11640;-71
2020/12/04 14:02:19;;;;;;;;;6.75;6.75;;;;;13.46;64.80;99459.91;4989286;28;11524;-73
2020/12/04 14:04:45;;;;;;;;;5.00;4.00;;;;;13.64;64.54;99470.97;4986894;28;11510;-74
2020/12/04 14:07:12;;;;;;;;;4.00;4.00;;;;;13.44;65.37;99466.94;4959632;28;11491;-70
2020/12/04 14:09:39;;;;;;;;;5.50;4.00;;;;;13.46;65.24;99470.41;4988568;28;11555;-71
2020/12/04 14:12:05;;;;;;;;;5.50;5.50;;;;;13.69;64.26;99457.78;4988925;28;11547;-71
2020/12/04 14:14:32;;;;;;;;;6.50;3.50;;;;;13.42;65.31;99464.34;4987023;28;11672;-71
2020/12/04 14:16:58;;;;;;;;;6.50;6.50;;;;;13.53;65.36;99466.81;4989196;28;11633;-73
2020/12/04 14:19:26;;;;;;;;;3.75;3.25;;;;;13.56;64.97;99472.00;4988891;28;11532;-72
2020/12/04 14:21:53;;;;;;;;;6.25;4.50;;;;;13.43;65.17;99460.81;4988543;28;11596;-71
2020/12/04 14:24:19;;;;;;;;;3.75;3.75;;;;;13.32;65.79;99468.00;4988626;28;11540;-72
2020/12/04 14:26:47;;;;;;;;;2.00;1.00;;;;;13.38;65.50;99467.06;4987159;28;11539;-74
2020/12/04 14:29:13;;;;;;;;;4.00;4.00;;;;;13.56;65.26;99477.25;4988820;28;11568;-74
2020/12/04 14:31:39;;;;;;;;;6.25;6.25;;;;;13.43;65.43;99465.22;4988729;28;11666;-72
2020/12/04 14:34:07;;;;;;;;;4.50;4.00;;;;;13.29;66.11;99482.94;4962555;28;11482;-75
2020/12/04 14:36:34;;;;;;;;;5.50;3.75;;;;;13.36;66.33;99474.06;4988583;28;12421;-75
2020/12/04 14:39:04;;;;;;;;;6.00;6.00;;;;;13.33;65.91;99474.13;4964453;28;11840;-73
2020/12/04 14:41:31;;;;;;;;;3.75;3.75;;;;;13.48;65.77;99473.91;4988280;28;11543;-73
2020/12/04 14:43:59;;;;;;;;;5.00;5.00;;;;;13.41;65.95;99470.50;4988039;28;11577;-72
2020/12/04 14:46:25;;;;;;;;;3.75;3.75;;;;;13.37;66.37;99470.56;4988354;28;11561;-73
2020/12/04 14:48:52;;;;;;;;;6.00;4.00;;;;;13.52;65.77;99470.31;4987697;28;11534;-73
2020/12/04 14:51:18;;;;;;;;;6.75;5.00;;;;;13.47;65.86;99472.13;4989428;28;11657;-73
2020/12/04 14:53:44;;;;;;;;;4.00;3.75;;;;;13.39;65.99;99463.53;4988579;28;11581;-74
2020/12/04 14:56:12;;;;;;;;;7.00;5.00;;;;;13.40;66.23;99466.13;4987942;28;11548;-73
2020/12/04 14:58:39;;;;;;;;;7.50;6.00;;;;;13.47;67.21;99473.03;4989236;28;11628;-73
2020/12/04 15:01:06;;;;;;;;;6.00;3.25;;;;;13.68;65.54;99477.06;4988478;28;11519;-72
2020/12/04 15:03:32;;;;;;;;;4.50;2.75;;;;;13.40;66.06;99470.50;4985799;28;11517;-72
2020/12/04 15:05:59;;;;;;;;;4.00;4.00;;;;;13.60;65.92;99468.44;4988561;28;11532;-74
2020/12/04 15:08:25;;;;;;;;;6.75;3.75;;;;;13.50;66.16;99472.09;4988391;28;11530;-72
2020/12/04 15:10:52;;;;;;;;;6.25;3.25;;;;;13.32;65.95;99452.22;4988136;28;11556;-73
2020/12/04 15:13:19;;;;;;;;;7.50;5.50;;;;;13.57;65.92;99468.47;4991316;28;11524;-69
2020/12/04 15:15:46;;;;;;;;;8.00;6.00;;;;;13.60;65.77;99463.19;4987516;28;11608;-71
2020/12/04 15:18:14;;;;;;;;;6.00;3.75;;;;;13.74;65.07;99455.91;4991283;28;12331;-71
2020/12/04 15:20:41;;;;;;;;;4.50;4.00;;;;;13.73;65.38;99459.44;4991390;28;11542;-71
2020/12/04 15:23:08;;;;;;;;;5.00;5.00;;;;;13.76;65.01;99462.03;4991470;28;11793;-73
2020/12/04 15:25:34;;;;;;;;;4.50;4.50;;;;;13.64;65.60;99465.72;4991552;28;11536;-73
2020/12/04 15:28:01;;;;;;;;;2.00;2.00;;;;;13.75;65.41;99468.19;4989351;28;11628;-74
2020/12/04 15:30:27;;;;;;;;;6.00;6.00;;;;;13.88;65.30;99461.81;4991637;28;11508;-71
2020/12/04 15:32:54;;;;;;;;;3.25;3.00;;;;;13.54;65.79;99473.81;4990322;28;11552;-74
2020/12/04 15:35:21;;;;;;;;;4.00;4.00;;;;;13.61;66.04;99467.53;4991500;28;11537;-77
2020/12/04 15:37:47;;;;;;;;;5.00;4.00;;;;;13.79;65.42;99464.59;4990686;28;11566;-74
2020/12/04 15:40:15;;;;;;;;;6.00;6.00;;;;;13.70;65.64;99485.81;4991089;28;11677;-73
2020/12/04 15:42:42;;;;;;;;;5.50;4.00;;;;;13.77;65.31;99469.03;4991164;28;11594;-73
2020/12/04 15:45:10;;;;;;;;;7.00;5.00;;;;;13.58;65.64;99486.00;4990496;28;11702;-72
2020/12/04 15:47:36;;;;;;;;;7.00;4.00;;;;;13.69;65.38;99478.81;4990967;28;11537;-73
2020/12/04 15:50:04;;;;;;;;;5.00;5.00;;;;;13.75;65.53;99478.72;4990302;28;11647;-75
2020/12/04 15:52:31;;;;;;;;;6.00;4.00;;;;;13.84;65.12;99478.53;4988030;28;11550;-72
2020/12/04 15:54:57;;;;;;;;;3.25;3.00;;;;;13.78;65.38;99469.00;4992251;28;11630;-73
2020/12/04 15:57:23;;;;;;;;;4.00;4.00;;;;;13.63;65.46;99449.97;4992856;28;11538;-75
2020/12/04 15:59:49;;;;;;;;;4.00;4.00;;;;;13.79;65.27;99456.69;4992775;28;11625;-74
2020/12/04 16:02:16;;;;;;;;;6.75;5.50;;;;;13.88;65.06;99459.19;4992680;28;11543;-73
2020/12/04 16:04:42;;;;;;;;;7.25;4.00;;;;;13.86;65.64;99450.47;4992328;28;11530;-81
2020/12/04 16:07:08;;;;;;;;;6.00;3.50;;;;;13.58;65.85;99464.94;4991978;28;11625;-74
2020/12/04 16:09:35;;;;;;;;;4.50;4.50;;;;;13.68;66.12;99456.00;4989278;28;12389;-75
2020/12/04 16:12:02;;;;;;;;;5.50;4.00;;;;;13.81;65.61;99452.31;4991754;28;11540;-75
2020/12/04 16:14:28;;;;;;;;;6.25;4.00;;;;;13.76;66.02;99454.13;4991851;28;11536;-73
2020/12/04 16:16:54;;;;;;;;;4.00;4.00;;;;;14.34;64.29;99433.78;4992305;28;11541;-71
2020/12/04 16:19:21;;;;;;;;;4.00;4.00;;;;;15.65;64.73;99448.34;4991988;28;12393;-74
2020/12/04 16:21:49;;;;;;;;;3.00;3.00;;;;;15.74;63.56;99423.53;4992389;28;12227;-84
2020/12/04 16:24:16;;;;;;;;;8.50;8.50;;;;;15.64;62.88;99427.31;4991822;28;11697;-75
2020/12/04 16:26:43;;;;;;;;;3.25;2.00;;;;;14.25;65.31;99436.59;4991368;28;11583;-75
2020/12/04 16:29:10;;;;;;;;;5.50;3.50;;;;;14.01;65.97;99421.19;4985521;28;11668;-75
2020/12/04 16:31:37;;;;;;;;;6.50;3.75;;;;;13.75;66.97;99429.59;4990872;28;11538;-75
2020/12/04 16:34:04;;;;;;;;;6.25;4.50;;;;;13.83;66.97;99434.72;4990952;28;11708;-74
2020/12/04 16:36:34;;;;;;;;;4.50;3.25;;;;;13.86;68.09;99437.31;4990826;28;11543;-75
2020/12/04 16:39:01;;;;;;;;;7.75;6.75;;;;;13.92;67.02;99439.81;4988623;28;11538;-75
2020/12/04 16:41:30;;;;;;;;;6.00;6.00;;;;;13.63;68.00;99444.69;4990497;28;11529;-76
2020/12/04 16:43:57;;;;;;;;;23.67;20.33;;;;;13.66;68.72;99432.38;4989222;28;12388;-74
2020/12/04 16:46:23;;;;;;;;;9.00;8.00;;;;;13.76;68.11;99454.13;4990720;28;11672;-74
2020/12/04 16:48:49;;;;;;;;;3.75;3.75;;;;;13.68;68.03;99450.75;4989710;28;12338;-74
2020/12/04 16:51:16;;;;;;;;;6.50;6.25;;;;;13.56;68.63;99432.56;4990241;28;11629;-74
2020/12/04 16:53:43;;;;;;;;;6.00;4.00;;;;;13.59;68.73;99424.63;4990026;28;11574;-74
2020/12/04 16:56:10;;;;;;;;;6.00;6.00;;;;;13.71;68.71;99424.41;4989565;28;11609;-77
2020/12/04 16:58:37;;;;;;;;;7.00;6.25;;;;;13.57;69.20;99426.41;4988160;28;11530;-77
2020/12/04 17:01:06;;;;;;;;;7.50;6.25;;;;;13.48;69.59;99422.16;4988386;28;12270;-69
2020/12/04 17:03:33;;;;;;;;;4.50;4.00;;;;;13.47;69.92;99415.16;4988083;28;11537;-77
2020/12/04 17:06:00;;;;;;;;;5.00;5.00;;;;;13.55;69.97;99422.94;4989666;28;11518;-80
2020/12/04 17:08:27;;;;;;;;;6.75;5.00;;;;;13.59;69.81;99435.16;4990507;28;12304;-83
2020/12/04 17:10:53;;;;;;;;;7.25;7.25;;;;;13.67;69.87;99420.09;4988142;28;11560;-80
2020/12/04 17:13:20;;;;;;;;;6.75;4.50;;;;;13.64;69.77;99422.78;4991347;28;11595;-71
2020/12/04 17:15:46;;;;;;;;;7.75;7.50;;;;;13.51;70.38;99432.66;4989699;28;11556;-73
2020/12/04 17:18:13;;;;;;;;;6.25;6.25;;;;;13.62;70.36;99424.56;4989948;28;11601;-71
2020/12/04 17:20:42;;;;;;;;;4.00;4.00;;;;;13.73;69.79;99412.09;4989099;28;11553;-80
2020/12/04 17:23:08;;;;;;;;;3.00;3.00;;;;;13.84;69.72;99410.13;4990141;28;11521;-80
2020/12/04 17:25:34;;;;;;;;;7.50;7.00;;;;;13.91;69.64;99417.03;4990461;28;11546;-75
2020/12/04 17:28:00;;;;;;;;;9.00;7.75;;;;;13.67;70.85;99420.09;4988559;28;11649;-73
2020/12/04 17:30:26;;;;;;;;;8.25;5.00;;;;;14.00;69.86;99419.47;4988040;28;11542;-74
2020/12/04 17:32:54;;;;;;;;;8.00;7.25;;;;;13.70;70.46;99417.41;4988322;28;11629;-73
2020/12/04 17:35:21;;;;;;;;;6.25;6.25;;;;;13.79;70.21;99422.50;4988247;28;11522;-72
2020/12/04 17:37:47;;;;;;;;;8.00;7.00;;;;;13.80;70.20;99426.88;4988396;28;11567;-74
2020/12/04 17:40:14;;;;;;;;;30.33;23.67;;;;;13.54;71.22;99434.34;4988473;28;11548;-75
2020/12/04 17:42:41;;;;;;;;;7.50;7.00;;;;;13.95;70.01;99423.94;4988244;28;11652;-72
2020/12/04 17:45:09;;;;;;;;;8.00;6.25;;;;;13.97;69.91;99416.91;4988276;28;11533;-73
2020/12/04 17:47:36;;;;;;;;;22.33;17.33;;;;;13.53;72.07;99419.47;4988419;28;11586;-74
2020/12/04 17:50:03;;;;;;;;;6.00;6.00;;;;;13.68;72.00;99420.06;4989896;28;11560;-76
2020/12/04 17:52:30;;;;;;;;;9.00;7.75;;;;;13.88;72.83;99414.44;4990569;28;11532;-78
2020/12/04 17:54:56;;;;;;;;;9.75;8.75;;;;;13.54;73.49;99405.44;4986805;28;11530;-75
2020/12/04 17:57:23;;;;;;;;;10.00;8.00;;;;;13.56;74.68;99399.25;4990085;28;11545;-76
2020/12/04 17:59:49;;;;;;;;;8.50;6.75;;;;;13.79;73.28;99397.06;4989027;28;11640;-76
2020/12/04 18:02:15;;;;;;;;;7.00;7.00;;;;;13.87;73.05;99410.09;4990374;28;11699;-78
2020/12/04 18:04:43;;;;;;;;;7.75;7.00;;;;;13.78;73.11;99407.59;4990280;28;11612;-75
2020/12/04 18:07:09;;;;;;;;;7.50;6.75;;;;;13.90;72.67;99396.84;4989794;28;11549;-75
2020/12/04 18:09:40;;;;;;;;;11.25;9.00;;;;;13.93;72.97;99394.19;4990426;28;11600;-77
2020/12/04 18:12:06;;;;;;;;;8.75;7.25;;;;;13.95;72.61;99413.44;4986793;28;11581;-76
2020/12/04 18:14:32;;;;;;;;;9.75;8.75;;;;;13.74;73.04;99392.75;4990779;28;11557;-75
2020/12/04 18:16:59;;;;;;;;;9.50;7.75;;;;;13.60;72.67;99395.66;4991429;28;11655;-74
2020/12/04 18:19:25;;;;;;;;;11.00;8.00;;;;;14.03;71.85;99379.94;4989506;28;11620;-73
2020/12/04 18:21:55;;;;;;;;;12.00;10.00;;;;;14.11;71.39;99393.81;4989587;28;11529;-77
2020/12/04 18:24:21;;;;;;;;;12.25;12.00;;;;;13.86;71.65;99388.16;4989776;28;11567;-74
2020/12/04 18:26:51;;;;;;;;;7.25;7.25;;;;;13.84;71.82;99383.81;4990588;28;11601;-77
2020/12/04 18:29:17;;;;;;;;;5.00;3.25;;;;;13.82;71.76;99385.63;4992805;28;11680;-77
2020/12/04 18:31:47;;;;;;;;;4.00;4.00;;;;;13.86;71.92;99388.16;4994504;28;11551;-76
2020/12/04 18:34:14;;;;;;;;;5.00;5.00;;;;;13.89;71.52;99395.13;4997979;28;11602;-80
2020/12/04 18:36:40;;;;;;;;;7.00;5.50;;;;;13.74;72.25;99388.38;4995752;28;12284;-79
2020/12/04 18:39:06;;;;;;;;;7.75;6.25;;;;;14.00;71.00;99395.78;4993288;28;11609;-79
2020/12/04 18:41:32;;;;;;;;;7.50;7.50;;;;;13.92;70.99;99392.44;4995044;28;11539;-82
2020/12/04 18:44:00;;;;;;;;;8.50;7.00;;;;;13.67;72.71;99393.78;4994098;28;11651;-75
2020/12/04 18:46:26;;;;;;;;;7.50;6.50;;;;;13.97;71.50;99393.22;4992024;28;11624;-76
2020/12/04 18:48:52;;;;;;;;;7.00;7.00;;;;;13.69;71.65;99395.50;4994492;28;11601;-81
2020/12/04 18:51:19;;;;;;;;;5.50;5.50;;;;;13.87;71.78;99399.56;4997938;28;11542;-82
2020/12/04 18:53:45;;;;;;;;;10.00;8.75;;;;;13.89;71.45;99392.50;4996618;28;11533;-80
2020/12/04 18:56:11;;;;;;;;;7.75;6.50;;;;;14.09;70.35;99390.34;4996248;28;11559;-79
2020/12/04 18:58:38;;;;;;;;;5.00;5.00;;;;;14.18;70.13;99391.03;4996545;28;11539;-76
2020/12/04 19:01:05;;;;;;;;;7.75;6.25;;;;;14.16;69.94;99397.22;4993463;28;12328;-74
2020/12/04 19:03:31;;;;;;;;;4.00;4.00;;;;;14.25;69.70;99386.56;4994104;28;11521;-77
2020/12/04 19:05:57;;;;;;;;;9.00;6.75;;;;;14.12;70.47;99395.53;4993415;28;11513;-79
2020/12/04 19:08:24;;;;;;;;;6.50;6.00;;;;;13.97;70.49;99395.88;4991766;28;11562;-75
2020/12/04 19:10:53;;;;;;;;;5.75;3.50;;;;;14.10;69.83;99397.34;4990815;28;11536;-75
2020/12/04 19:13:19;;;;;;;;;6.00;6.00;;;;;13.98;70.62;99398.44;4991312;28;11542;-75
2020/12/04 19:15:45;;;;;;;;;7.50;7.00;;;;;13.89;70.88;99392.50;4991583;28;11519;-76
2020/12/04 19:18:12;;;;;;;;;5.00;4.00;;;;;13.74;71.57;99411.19;4991232;28;11501;-75
2020/12/04 19:20:39;;;;;;;;;4.00;4.00;;;;;13.77;71.34;99429.56;4989786;28;11694;-72
2020/12/04 19:23:05;;;;;;;;;6.00;6.00;;;;;13.96;70.61;99412.56;4990475;28;12391;-74
2020/12/04 19:25:31;;;;;;;;;4.00;4.00;;;;;13.94;70.78;99419.59;4991029;28;11500;-72
2020/12/04 19:27:58;;;;;;;;;3.00;3.00;;;;;13.81;70.57;99412.84;4990338;28;11690;-72
2020/12/04 19:30:24;;;;;;;;;5.50;3.75;;;;;13.91;71.04;99423.16;4991235;28;12364;-73
2020/12/04 19:32:50;;;;;;;;;7.00;4.00;;;;;13.95;70.60;99421.31;4988157;28;11555;-74
2020/12/04 19:35:17;;;;;;;;;10.25;5.00;;;;;14.02;70.48;99420.34;4991330;28;11634;-74
2020/12/04 19:37:43;;;;;;;;;4.00;4.00;;;;;14.02;70.59;99420.34;4990738;28;11534;-73
2020/12/04 19:40:10;;;;;;;;;7.00;6.75;;;;;13.88;71.24;99424.97;4991430;28;11559;-77
2020/12/04 19:42:36;;;;;;;;;12.75;12.75;;;;;13.60;71.31;99357.97;4991847;28;11544;-79
2020/12/04 19:45:04;;;;;;;;;9.25;7.75;;;;;14.06;70.92;99416.72;4991417;28;11808;-76
2020/12/04 19:47:30;;;;;;;;;4.25;4.25;;;;;13.83;72.02;99426.81;4987876;28;11571;-78
2020/12/04 19:49:56;;;;;;;;;8.75;6.50;;;;;13.99;71.43;99409.84;4991513;28;11519;-80
2020/12/04 19:52:23;;;;;;;;;4.00;4.00;;;;;14.11;70.74;99414.88;4990660;28;11569;-74
2020/12/04 19:54:50;;;;;;;;;7.00;6.00;;;;;13.88;71.64;99407.44;4988244;28;11554;-75
2020/12/04 19:57:16;;;;;;;;;4.00;3.25;;;;;13.87;71.73;99420.63;4988922;28;11559;-76
2020/12/04 19:59:42;;;;;;;;;6.50;6.50;;;;;13.80;71.82;99424.25;4989878;28;11630;-76
2020/12/04 20:02:08;;;;;;;;;7.00;6.00;;;;;13.84;72.07;99411.00;4989243;28;12290;-74
2020/12/04 20:04:35;;;;;;;;;3.00;3.00;;;;;13.92;71.69;99400.34;4990320;28;11518;-76
2020/12/04 20:07:01;;;;;;;;;3.00;3.00;;;;;13.80;71.61;99403.22;4989722;28;11526;-76
2020/12/04 20:09:29;;;;;;;;;4.50;2.00;;;;;13.93;71.50;99404.72;4989872;28;11554;-74
2020/12/04 20:11:55;;;;;;;;;3.00;2.50;;;;;14.03;70.86;99406.28;4989482;28;12300;-77
2020/12/04 20:14:22;;;;;;;;;3.00;2.75;;;;;14.20;70.30;99414.75;4990008;28;11536;-74
2020/12/04 20:18:41;;;;;;;;;5.50;5.50;;;;;14.38;69.23;99419.63;5115676;27;13560;-76
2020/12/04 20:21:07;;;;;;;;;4.00;3.75;;;;;14.43;68.68;99423.03;5087583;28;12253;-76
2020/12/04 20:23:35;;;;;;;;;5.00;5.00;;;;;14.36;68.92;99418.81;5088061;28;11506;-74
2020/12/04 20:26:04;;;;;;;;;3.00;3.00;;;;;14.43;68.61;99415.13;5094814;28;11572;-76
2020/12/04 20:28:30;;;;;;;;;3.25;3.25;;;;;14.50;68.67;99409.72;5089974;28;12244;-75
2020/12/04 20:30:58;;;;;;;;;3.00;3.00;;;;;14.33;69.21;99405.69;5088722;28;11515;-75
2020/12/04 20:33:25;;;;;;;;;6.75;4.00;;;;;14.31;69.35;99391.69;5087938;28;11474;-78
2020/12/04 20:35:52;;;;;;;;;3.00;3.00;;;;;14.46;69.04;99386.13;5097592;28;11523;-79
2020/12/04 20:38:19;;;;;;;;;2.75;2.00;;;;;14.45;69.01;99390.50;5096052;28;11500;-78
2020/12/04 20:40:46;;;;;;;;;6.00;4.00;;;;;14.26;69.22;99373.38;5098301;28;12060;-78
2020/12/04 20:43:12;;;;;;;;;2.00;2.00;;;;;14.56;68.94;99382.41;5096975;28;12334;-76
2020/12/04 20:45:38;;;;;;;;;3.75;2.75;;;;;14.50;68.84;99387.81;5098655;28;11488;-79
2020/12/04 20:48:05;;;;;;;;;3.00;3.00;;;;;14.54;68.64;99392.06;5095546;28;11628;-78
2020/12/04 20:50:31;;;;;;;;;3.00;3.00;;;;;14.35;69.04;99398.66;5098966;28;12347;-79
2020/12/04 20:53:00;;;;;;;;;3.00;3.00;;;;;14.46;68.94;99412.47;5096558;28;11514;-77
2020/12/04 20:55:27;;;;;;;;;4.00;3.00;;;;;14.22;69.87;99402.41;5095031;28;11474;-79
2020/12/04 20:57:53;;;;;;;;;4.00;3.50;;;;;14.46;69.20;99397.50;5095197;28;11620;-78
2020/12/04 21:00:19;;;;;;;;;4.25;3.00;;;;;14.41;69.07;99382.72;5096144;28;11582;-76
2020/12/04 21:02:46;;;;;;;;;2.50;2.50;;;;;14.52;68.85;99401.78;5095081;28;11477;-77
2020/12/04 21:05:12;;;;;;;;;2.75;2.00;;;;;14.40;69.22;99407.31;5094884;28;11520;-76
2020/12/04 21:07:38;;;;;;;;;3.75;3.75;;;;;14.46;68.79;99407.19;5096586;28;13066;-75
2020/12/04 21:10:05;;;;;;;;;2.00;2.00;;;;;14.49;68.97;99404.47;5093477;28;12081;-77
2020/12/04 21:12:32;;;;;;;;;2.50;2.00;;;;;14.63;68.53;99410.34;5095115;28;11497;-76
2020/12/04 21:14:59;;;;;;;;;3.00;2.00;;;;;14.59;68.26;99403.38;5093560;28;11459;-74
2020/12/04 21:17:25;;;;;;;;;2.00;2.00;;;;;14.73;68.09;99406.59;5094336;28;11594;-73
2020/12/04 21:19:51;;;;;;;;;4.00;3.00;;;;;14.65;68.25;99392.72;5096675;28;11475;-73
2020/12/04 21:22:19;;;;;;;;;2.50;0.00;;;;;14.66;68.11;99378.66;5096445;28;11566;-73
2020/12/04 21:24:47;;;;;;;;;3.50;2.50;;;;;14.56;68.04;99379.75;5095467;28;11045;-73
2020/12/04 21:27:14;;;;;;;;;3.25;2.00;;;;;14.60;68.29;99405.13;5093683;28;12235;-73
2020/12/04 21:29:46;;;;;;;;;3.00;3.00;;;;;14.61;68.73;99409.50;5084428;28;12252;-80
2020/12/04 21:32:18;;;;;;;;;3.25;3.25;;;;;14.31;69.98;99412.75;5079698;28;11591;-78
2020/12/04 21:34:49;;;;;;;;;4.50;4.00;;;;;14.51;69.60;99431.66;5079896;28;11520;-78
2020/12/04 21:37:15;;;;;;;;;6.25;5.00;;;;;14.74;69.30;99429.41;5080493;28;11501;-79
2020/12/04 21:39:42;;;;;;;;;3.75;3.00;;;;;14.82;69.21;99432.72;5080378;28;11512;-75
2020/12/04 21:42:08;;;;;;;;;3.50;3.00;;;;;14.81;69.60;99415.19;5085396;28;12258;-74
2020/12/04 21:44:35;;;;;;;;;4.00;4.00;;;;;14.60;70.85;99432.34;5086774;28;11507;-77
2020/12/04 21:47:04;;;;;;;;;3.00;2.00;;;;;14.86;69.97;99418.59;5084479;28;11492;-77
2020/12/04 21:49:33;;;;;;;;;4.50;4.00;;;;;14.59;70.63;99411.28;5082332;28;11516;-74
2020/12/04 21:52:01;;;;;;;;;2.00;2.00;;;;;14.92;70.11;99421.09;5080567;28;11514;-75
2020/12/04 21:54:27;;;;;;;;;3.75;2.25;;;;;14.95;69.96;99423.69;5082183;28;11664;-76
2020/12/04 21:56:55;;;;;;;;;2.75;2.00;;;;;14.73;71.13;99428.53;5085352;28;11513;-74
2020/12/04 21:59:22;;;;;;;;;3.00;3.00;;;;;14.69;71.77;99426.88;5092685;28;11616;-75
2020/12/04 22:01:49;;;;;;;;;3.25;3.25;;;;;14.70;71.82;99406.66;5092049;28;11578;-78